createdAt,value
2023-02-18T00:01:16.363Z,11.70
2023-02-18T00:03:44.442Z,11.90
2023-02-18T00:06:14.233Z,11.90
2023-02-18T00:08:42.570Z,11.80
2023-02-18T00:11:10.514Z,11.90
2023-02-18T00:13:39.686Z,11.90
2023-02-18T00:16:09.739Z,11.90
2023-02-18T00:18:38.013Z,11.90
2023-02-18T00:21:07.220Z,11.70
2023-02-18T00:23:35.572Z,11.90
2023-02-18T00:26:05.295Z,12.00
2023-02-18T00:28:33.483Z,11.80
2023-02-18T00:31:07.452Z,12.10
2023-02-18T00:33:35.495Z,12.10
2023-02-18T00:36:04.786Z,12.20
2023-02-18T00:38:32.864Z,11.80
2023-02-18T00:41:01.444Z,12.00
2023-02-18T00:43:32.139Z,12.10
2023-02-18T00:46:00.051Z,11.90
2023-02-18T00:48:29.536Z,11.80
2023-02-18T00:50:57.304Z,11.80
2023-02-18T00:53:25.165Z,12.00
2023-02-18T00:55:53.435Z,11.90
2023-02-18T00:58:21.225Z,11.90
2023-02-18T01:00:49.440Z,12.00
2023-02-18T01:03:17.351Z,12.10
2023-02-18T01:05:46.575Z,12.20
2023-02-18T01:08:14.327Z,12.00
2023-02-18T01:10:44.922Z,12.00
2023-02-18T01:13:13.541Z,11.80
2023-02-18T01:15:42.176Z,11.90
2023-02-18T01:18:10.988Z,12.10
2023-02-18T01:20:40.686Z,11.80
2023-02-18T01:23:10.447Z,11.60
2023-02-18T01:25:38.875Z,12.00
2023-02-18T01:28:07.827Z,12.00
2023-02-18T01:30:35.962Z,12.20
2023-02-18T01:33:03.769Z,11.90
2023-02-18T01:35:31.598Z,12.20
2023-02-18T01:37:59.461Z,12.20
2023-02-18T01:40:30.717Z,12.40
2023-02-18T01:42:58.475Z,12.20
2023-02-18T01:45:49.154Z,12.20
2023-02-18T01:48:20.910Z,12.20
2023-02-18T01:50:54.515Z,12.40
2023-02-18T01:53:31.202Z,12.40
2023-02-18T01:56:03.804Z,12.20
2023-02-18T01:58:31.999Z,12.20
2023-02-18T02:00:59.989Z,12.40
2023-02-18T02:03:27.882Z,12.40
2023-02-18T02:05:55.706Z,12.40
2023-02-18T02:08:23.643Z,12.60
2023-02-18T02:11:08.542Z,12.30
2023-02-18T02:13:48.385Z,12.30
2023-02-18T02:16:23.333Z,12.30
2023-02-18T02:19:03.281Z,12.30
2023-02-18T02:21:53.624Z,12.30
2023-02-18T02:25:02.095Z,12.40
2023-02-18T02:27:49.491Z,12.30
2023-02-18T02:30:42.938Z,12.40
2023-02-18T02:33:37.434Z,12.40
2023-02-18T02:36:14.148Z,12.60
2023-02-18T02:38:51.172Z,12.60
2023-02-18T02:41:28.778Z,12.40
2023-02-18T02:44:07.727Z,12.70
2023-02-18T02:46:39.924Z,12.70
2023-02-18T02:49:17.232Z,12.80
2023-02-18T02:51:52.191Z,12.90
2023-02-18T02:54:23.076Z,12.90
2023-02-18T02:56:51.287Z,12.90
2023-02-18T02:59:23.996Z,12.80
2023-02-18T03:02:09.928Z,12.80
2023-02-18T03:04:51.192Z,12.80
2023-02-18T03:07:34.737Z,12.90
2023-02-18T03:10:19.405Z,12.80
2023-02-18T03:12:53.650Z,12.80
2023-02-18T03:15:25.254Z,12.70
2023-02-18T03:17:58.963Z,12.80
2023-02-18T03:20:29.254Z,12.80
2023-02-18T03:23:01.159Z,12.80
2023-02-18T03:25:30.209Z,12.80
2023-02-18T03:28:02.621Z,12.80
2023-02-18T03:30:33.987Z,12.80
2023-02-18T03:33:06.668Z,12.80
2023-02-18T03:35:37.143Z,12.90
2023-02-18T03:38:13.084Z,12.90
2023-02-18T03:40:40.990Z,12.90
2023-02-18T03:43:08.945Z,13.10
2023-02-18T03:45:36.750Z,13.10
2023-02-18T03:48:04.844Z,13.00
2023-02-18T03:50:32.569Z,12.90
2023-02-18T03:53:00.229Z,12.90
2023-02-18T03:55:29.431Z,13.10
2023-02-18T03:57:57.200Z,13.00
2023-02-18T04:00:24.904Z,13.00
2023-02-18T04:02:52.709Z,13.10
2023-02-18T04:05:20.798Z,13.10
2023-02-18T04:07:48.570Z,13.20
2023-02-18T04:10:16.379Z,13.30
2023-02-18T04:12:45.660Z,13.30
2023-02-18T04:15:14.079Z,13.20
2023-02-18T04:17:41.805Z,13.30
2023-02-18T04:20:10.351Z,13.50
2023-02-18T04:22:38.048Z,13.20
2023-02-18T04:25:06.357Z,13.30
2023-02-18T04:27:34.024Z,13.00
2023-02-18T04:30:03.437Z,13.00
2023-02-18T04:32:31.229Z,13.20
2023-02-18T04:34:58.921Z,13.20
2023-02-18T04:37:26.821Z,13.20
2023-02-18T04:39:57.700Z,13.20
2023-02-18T04:42:26.384Z,13.30
2023-02-18T04:44:54.333Z,13.20
2023-02-18T04:47:23.815Z,13.20
2023-02-18T04:49:51.646Z,13.40
2023-02-18T04:52:19.569Z,13.40
2023-02-18T04:54:47.381Z,13.40
2023-02-18T04:57:15.126Z,13.60
2023-02-18T04:59:43.016Z,13.70
2023-02-18T05:02:10.823Z,13.70
2023-02-18T05:04:39.960Z,13.60
2023-02-18T05:07:07.844Z,13.50
2023-02-18T05:09:35.543Z,13.50
2023-02-18T05:12:03.303Z,13.40
2023-02-18T05:14:31.044Z,13.50
2023-02-18T05:16:58.985Z,13.40
2023-02-18T05:19:26.682Z,13.30
2023-02-18T05:21:55.792Z,13.30
2023-02-18T05:24:23.603Z,13.40
2023-02-18T05:26:51.638Z,13.30
2023-02-18T05:29:19.409Z,13.40
2023-02-18T05:31:47.289Z,13.40
2023-02-18T05:34:15.044Z,13.30
2023-02-18T05:36:42.790Z,13.50
2023-02-18T05:39:11.923Z,13.50
2023-02-18T05:41:39.819Z,13.50
2023-02-18T05:44:24.728Z,13.50
2023-02-18T05:46:52.661Z,13.40
2023-02-18T05:49:23.726Z,13.30
2023-02-18T05:51:53.679Z,13.30
2023-02-18T05:54:23.214Z,13.20
2023-02-18T05:56:51.190Z,13.30
2023-02-18T05:59:19.524Z,13.30
2023-02-18T06:01:47.965Z,13.30
2023-02-18T06:04:16.249Z,13.20
2023-02-18T06:06:44.446Z,13.20
2023-02-18T06:09:12.698Z,13.20
2023-02-18T06:11:41.838Z,13.00
2023-02-18T06:14:09.793Z,13.30
2023-02-18T06:16:37.780Z,13.40
2023-02-18T06:19:05.790Z,13.30
2023-02-18T06:21:33.775Z,13.30
2023-02-18T06:24:09.669Z,13.40
2023-02-18T06:26:54.248Z,13.50
2023-02-18T06:29:22.146Z,13.50
2023-02-18T06:31:50.124Z,13.40
2023-02-18T06:34:18.209Z,13.30
2023-02-18T06:36:46.300Z,13.20
2023-02-18T06:39:14.196Z,13.10
2023-02-18T06:41:43.424Z,13.10
2023-02-18T06:44:11.688Z,12.90
2023-02-18T06:46:39.487Z,12.90
2023-02-18T06:49:07.333Z,13.00
2023-02-18T06:51:35.173Z,13.00
2023-02-18T06:54:03.211Z,13.00
2023-02-18T06:56:31.173Z,13.00
2023-02-18T06:59:00.613Z,12.80
2023-02-18T07:01:28.454Z,12.90
2023-02-18T07:03:59.816Z,12.80
2023-02-18T07:06:35.047Z,13.00
2023-02-18T07:09:12.412Z,13.00
2023-02-18T07:11:52.404Z,12.90
2023-02-18T07:14:21.860Z,13.00
2023-02-18T07:17:19.970Z,12.90
2023-02-18T07:19:56.789Z,13.00
2023-02-18T07:22:35.237Z,12.80
2023-02-18T07:25:04.187Z,12.90
2023-02-18T07:27:45.124Z,12.70
2023-02-18T07:30:28.956Z,12.90
2023-02-18T07:32:56.952Z,13.00
2023-02-18T07:35:35.041Z,12.80
2023-02-18T07:38:27.203Z,12.70
2023-02-18T07:41:44.638Z,12.80
2023-02-18T07:44:41.579Z,13.00
2023-02-18T07:51:11.996Z,12.80
2023-02-18T07:54:04.521Z,12.80
2023-02-18T08:04:30.971Z,12.80
2023-02-18T08:07:09.460Z,12.90
2023-02-18T08:09:53.884Z,12.10
2023-02-18T08:16:07.436Z,12.60
2023-02-18T08:23:06.478Z,13.10
2023-02-18T08:25:57.569Z,13.10
2023-02-18T08:36:58.499Z,13.60
2023-02-18T08:41:02.324Z,13.70
2023-02-18T08:55:48.858Z,13.70
2023-02-18T08:58:50.168Z,13.90
2023-02-18T09:33:33.369Z,14.20
2023-02-18T09:44:14.606Z,14.20
2023-02-18T09:46:50.369Z,14.40
2023-02-18T09:49:24.056Z,14.60
2023-02-18T09:51:52.183Z,14.40
2023-02-18T09:56:56.762Z,14.30
2023-02-18T09:59:27.273Z,14.30
2023-02-18T10:01:57.171Z,14.00
2023-02-18T10:04:32.037Z,14.30
2023-02-18T10:07:02.136Z,14.60
2023-02-18T10:09:34.709Z,14.60
2023-02-18T10:12:14.337Z,14.50
2023-02-18T10:14:42.335Z,14.50
2023-02-18T10:17:16.224Z,14.70
2023-02-18T10:19:48.640Z,14.40
2023-02-18T10:22:17.778Z,14.30
2023-02-18T10:24:49.426Z,14.70
2023-02-18T10:27:24.536Z,14.70
2023-02-18T10:29:52.499Z,14.70
2023-02-18T10:32:24.124Z,14.70
2023-02-18T10:35:04.095Z,14.60
2023-02-18T10:37:55.785Z,14.50
2023-02-18T10:40:33.331Z,14.50
2023-02-18T10:43:11.979Z,14.50
2023-02-18T10:45:48.817Z,14.50
2023-02-18T10:48:37.242Z,14.30
2023-02-18T10:51:15.665Z,14.40
2023-02-18T10:53:46.604Z,14.40
2023-02-18T10:56:34.991Z,14.40
2023-02-18T10:59:10.810Z,14.30
2023-02-18T11:01:39.208Z,14.40
2023-02-18T11:04:13.741Z,14.40
2023-02-18T11:06:46.378Z,14.50
2023-02-18T11:09:31.170Z,14.40
2023-02-18T11:12:08.661Z,14.40
2023-02-18T11:14:43.021Z,14.60
2023-02-18T11:17:17.738Z,14.60
2023-02-18T11:19:54.525Z,14.60
2023-02-18T11:22:25.907Z,14.50
2023-02-18T11:24:58.433Z,14.20
2023-02-18T11:27:32.214Z,13.90
2023-02-18T11:30:04.084Z,13.90
2023-02-18T11:32:35.681Z,13.90
2023-02-18T11:35:04.353Z,14.10
2023-02-18T11:37:37.693Z,14.30
2023-02-18T11:40:06.582Z,13.80
2023-02-18T11:42:34.303Z,13.60
2023-02-18T11:45:04.454Z,13.60
2023-02-18T11:47:35.016Z,13.80
2023-02-18T11:50:26.547Z,13.70
2023-02-18T11:52:57.435Z,13.70
2023-02-18T11:55:27.422Z,13.80
2023-02-18T11:57:58.004Z,14.00
2023-02-18T12:00:36.686Z,13.60
2023-02-18T12:03:08.876Z,13.80
2023-02-18T12:05:38.889Z,13.70
2023-02-18T12:08:14.955Z,13.60
2023-02-18T12:10:45.846Z,13.80
2023-02-18T12:13:25.891Z,13.90
2023-02-18T12:16:14.470Z,13.70
2023-02-18T12:19:04.420Z,13.70
2023-02-18T12:21:41.299Z,13.80
2023-02-18T12:24:24.872Z,13.90
2023-02-18T12:27:00.417Z,13.90
2023-02-18T12:29:43.885Z,13.90
2023-02-18T12:32:23.117Z,13.60
2023-02-18T12:35:04.443Z,13.70
2023-02-18T12:38:10.884Z,13.80
2023-02-18T12:40:54.814Z,13.60
2023-02-18T12:43:35.028Z,13.40
2023-02-18T12:46:22.356Z,13.40
2023-02-18T12:49:02.376Z,13.60
2023-02-18T12:51:39.604Z,13.60
2023-02-18T12:54:34.336Z,13.40
2023-02-18T12:57:24.853Z,13.70
2023-02-18T13:00:18.829Z,13.60
2023-02-18T13:03:04.982Z,13.50
2023-02-18T13:05:45.838Z,13.50
2023-02-18T13:08:33.208Z,13.80
2023-02-18T13:11:20.313Z,13.70
2023-02-18T13:13:58.643Z,13.70
2023-02-18T13:16:29.416Z,13.80
2023-02-18T13:19:02.913Z,13.80
2023-02-18T13:21:32.047Z,13.70
2023-02-18T13:24:03.378Z,13.70
2023-02-18T13:26:33.472Z,13.50
2023-02-18T13:29:17.860Z,13.70
2023-02-18T13:31:52.552Z,13.60
2023-02-18T13:34:26.536Z,14.00
2023-02-18T13:37:02.910Z,13.80
2023-02-18T13:39:32.556Z,13.60
2023-02-18T13:42:25.602Z,13.40
2023-02-18T13:45:32.507Z,13.40
2023-02-18T13:48:01.935Z,13.70
2023-02-18T13:50:33.869Z,13.70
2023-02-18T13:53:19.953Z,13.80
2023-02-18T13:55:53.837Z,13.70
2023-02-18T13:58:25.399Z,13.90
2023-02-18T14:00:58.244Z,13.80
2023-02-18T14:03:51.105Z,13.70
2023-02-18T14:06:20.924Z,13.80
2023-02-18T14:08:49.785Z,13.60
2023-02-18T14:11:34.970Z,13.70
2023-02-18T14:14:46.114Z,14.00
2023-02-18T14:17:30.931Z,13.90
2023-02-18T14:20:31.201Z,13.90
2023-02-18T14:22:59.222Z,13.60
2023-02-18T14:25:36.253Z,13.70
2023-02-18T14:28:05.940Z,13.90
2023-02-18T14:30:41.049Z,14.00
2023-02-18T14:33:17.498Z,14.00
2023-02-18T14:35:49.934Z,13.90
2023-02-18T14:38:36.992Z,13.80
2023-02-18T14:41:40.020Z,13.70
2023-02-18T14:44:44.778Z,13.70
2023-02-18T14:47:25.531Z,13.70
2023-02-18T14:49:58.945Z,13.70
2023-02-18T14:52:32.687Z,13.70
2023-02-18T14:55:03.571Z,13.70
2023-02-18T14:57:38.123Z,13.90
2023-02-18T15:00:07.614Z,13.60
2023-02-18T15:02:39.461Z,14.00
2023-02-18T15:05:16.638Z,14.00
2023-02-18T15:07:56.092Z,13.80
2023-02-18T15:10:26.709Z,14.00
2023-02-18T15:12:56.334Z,14.10
2023-02-18T15:15:24.833Z,13.80
2023-02-18T15:17:52.780Z,14.10
2023-02-18T15:20:21.880Z,13.90
2023-02-18T15:22:49.693Z,14.00
2023-02-18T15:25:17.474Z,14.20
2023-02-18T15:27:46.909Z,13.90
2023-02-18T15:30:22.173Z,13.90
2023-02-18T15:32:54.367Z,13.90
2023-02-18T15:35:24.785Z,14.10
2023-02-18T15:37:54.727Z,14.00
2023-02-18T15:40:25.326Z,13.60
2023-02-18T15:42:57.425Z,13.90
2023-02-18T15:45:30.838Z,13.90
2023-02-18T15:47:59.492Z,13.90
2023-02-18T15:50:30.639Z,13.90
2023-02-18T15:53:00.720Z,14.20
2023-02-18T15:55:32.190Z,14.40
2023-02-18T15:58:02.767Z,14.20
2023-02-18T16:00:34.433Z,14.40
2023-02-18T16:03:05.586Z,14.00
2023-02-18T16:05:39.372Z,13.60
2023-02-18T16:08:13.983Z,14.20
2023-02-18T16:10:54.484Z,14.00
2023-02-18T16:13:25.102Z,14.10
2023-02-18T16:15:54.645Z,14.10
2023-02-18T16:18:29.988Z,14.20
2023-02-18T16:21:02.371Z,14.10
2023-02-18T16:23:37.282Z,13.90
2023-02-18T16:26:22.629Z,14.10
2023-02-18T16:28:53.679Z,14.10
2023-02-18T16:31:22.038Z,14.00
2023-02-18T16:33:50.612Z,14.20
2023-02-18T16:36:21.287Z,14.00
2023-02-18T16:38:49.470Z,14.00
2023-02-18T16:41:18.636Z,13.90
2023-02-18T16:43:46.302Z,14.10
2023-02-18T16:46:17.504Z,13.70
2023-02-18T16:48:47.056Z,13.90
2023-02-18T16:51:17.654Z,13.80
2023-02-18T16:53:46.743Z,13.80
2023-02-18T16:56:16.347Z,13.90
2023-02-18T16:58:44.341Z,14.00
2023-02-18T17:01:23.653Z,14.10
2023-02-18T17:03:51.733Z,14.20
2023-02-18T17:06:19.734Z,14.10
2023-02-18T17:08:49.424Z,14.00
2023-02-18T17:11:23.724Z,14.10
2023-02-18T17:13:51.744Z,14.10
2023-02-18T17:16:20.368Z,14.30
2023-02-18T17:18:48.701Z,14.10
2023-02-18T17:21:19.463Z,14.10
2023-02-18T17:23:49.197Z,14.30
2023-02-18T17:26:22.946Z,14.50
2023-02-18T17:28:51.446Z,14.20
2023-02-18T17:31:23.412Z,14.30
2023-02-18T17:33:51.526Z,14.30
2023-02-18T17:36:19.804Z,14.30
2023-02-18T17:38:49.304Z,14.40
2023-02-18T17:41:17.634Z,14.40
2023-02-18T17:43:46.083Z,14.30
2023-02-18T17:46:16.066Z,14.30
2023-02-18T17:48:45.298Z,14.30
2023-02-18T17:51:24.382Z,14.40
2023-02-18T17:53:54.060Z,14.10
2023-02-18T17:56:21.908Z,14.40
2023-02-18T17:58:49.749Z,14.40
2023-02-18T18:01:18.515Z,14.30
2023-02-18T18:03:46.408Z,14.10
2023-02-18T18:06:17.398Z,14.30
2023-02-18T18:08:45.232Z,14.40
2023-02-18T18:11:18.058Z,14.10
2023-02-18T18:13:46.593Z,14.00
2023-02-18T18:16:16.263Z,14.30
2023-02-18T18:18:44.332Z,13.90
2023-02-18T18:21:20.677Z,14.50
2023-02-18T18:23:48.346Z,14.50
2023-02-18T18:26:18.114Z,14.50
2023-02-18T18:28:45.773Z,14.60
2023-02-18T18:31:18.592Z,14.40
2023-02-18T18:33:48.828Z,14.50
2023-02-18T18:36:16.930Z,14.50
2023-02-18T18:38:44.619Z,14.20
2023-02-18T18:41:15.427Z,14.30
2023-02-18T18:43:44.606Z,14.30
2023-02-18T18:46:12.401Z,14.40
2023-02-18T18:48:40.208Z,14.50
2023-02-18T18:51:08.115Z,14.40
2023-02-18T18:53:36.679Z,14.30
2023-02-18T18:56:06.504Z,14.50
2023-02-18T18:58:34.497Z,14.30
2023-02-18T19:01:06.817Z,14.40
2023-02-18T19:03:35.495Z,14.00
2023-02-18T19:06:03.276Z,14.30
2023-02-18T19:08:32.287Z,14.40
2023-02-18T19:11:00.045Z,14.50
2023-02-18T19:13:29.361Z,14.30
2023-02-18T19:16:02.258Z,14.50
2023-02-18T19:18:33.580Z,14.40
2023-02-18T19:21:03.404Z,14.40
2023-02-18T19:23:31.271Z,14.40
2023-02-18T19:25:59.235Z,14.50
2023-02-18T19:28:27.483Z,14.30
2023-02-18T19:30:55.190Z,14.30
2023-02-18T19:33:23.131Z,14.40
2023-02-18T19:35:52.137Z,14.20
2023-02-18T19:38:21.172Z,14.20
2023-02-18T19:40:48.928Z,14.30
2023-02-18T19:43:16.835Z,14.10
2023-02-18T19:45:46.832Z,14.20
2023-02-18T19:48:16.262Z,14.20
2023-02-18T19:50:44.962Z,13.90
2023-02-18T19:53:13.991Z,14.20
2023-02-18T19:55:41.687Z,14.20
2023-02-18T19:58:09.396Z,14.20
2023-02-18T20:00:37.102Z,14.20
2023-02-18T20:03:04.890Z,14.10
2023-02-18T20:05:32.550Z,14.30
2023-02-18T20:08:00.273Z,14.30
2023-02-18T20:10:29.305Z,14.00
2023-02-18T20:12:56.975Z,14.30
2023-02-18T20:15:24.852Z,14.30
2023-02-18T20:17:52.498Z,14.20
2023-02-18T20:20:20.730Z,14.30
2023-02-18T20:22:48.518Z,14.30
2023-02-18T20:25:16.347Z,14.20
2023-02-18T20:27:59.762Z,14.10
2023-02-18T20:30:28.922Z,14.30
2023-02-18T20:32:56.665Z,14.00
2023-02-18T20:35:24.423Z,14.20
2023-02-18T20:37:52.128Z,14.10
2023-02-18T20:40:19.987Z,14.20
2023-02-18T20:42:49.607Z,14.10
2023-02-18T20:45:17.464Z,14.10
2023-02-18T20:47:45.143Z,14.10
2023-02-18T20:50:12.780Z,14.10
2023-02-18T20:52:40.883Z,14.00
2023-02-18T20:55:08.771Z,14.00
2023-02-18T20:57:36.624Z,14.10
2023-02-18T21:00:06.835Z,14.20
2023-02-18T21:02:34.594Z,14.20
2023-02-18T21:05:02.318Z,14.00
2023-02-18T21:07:30.018Z,14.20
2023-02-18T21:09:57.674Z,13.90
2023-02-18T21:12:25.281Z,14.10
2023-02-18T21:14:53.010Z,14.20
2023-02-18T21:17:22.878Z,14.10
2023-02-18T21:19:50.606Z,14.10
2023-02-18T21:22:18.253Z,14.30
2023-02-18T21:24:45.902Z,14.20
2023-02-18T21:27:13.626Z,14.10
2023-02-18T21:29:41.282Z,14.20
2023-02-18T21:32:09.200Z,14.20
2023-02-18T21:34:38.571Z,13.80
2023-02-18T21:37:06.235Z,14.10
2023-02-18T21:39:33.904Z,13.90
2023-02-18T21:42:04.064Z,14.10
2023-02-18T21:44:41.956Z,14.10
2023-02-18T21:47:10.584Z,14.10
2023-02-18T21:49:39.747Z,14.30
2023-02-18T21:52:09.383Z,14.40
2023-02-18T21:54:40.113Z,14.40
2023-02-18T21:57:11.280Z,14.20
2023-02-18T21:59:39.501Z,14.20
2023-02-18T22:02:09.884Z,14.20
2023-02-18T22:04:40.029Z,14.10
2023-02-18T22:07:08.802Z,14.10
2023-02-18T22:09:36.728Z,14.20
2023-02-18T22:12:05.275Z,14.00
2023-02-18T22:14:32.956Z,14.00
2023-02-18T22:17:01.130Z,14.00
2023-02-18T22:19:28.829Z,14.00
2023-02-18T22:21:58.190Z,13.80
2023-02-18T22:24:25.907Z,13.90
2023-02-18T22:26:53.869Z,13.70
2023-02-18T22:29:22.153Z,14.00
2023-02-18T22:31:53.172Z,13.90
2023-02-18T22:34:21.688Z,13.70
2023-02-18T22:36:49.623Z,13.90
2023-02-18T22:39:18.792Z,14.00
2023-02-18T22:41:46.662Z,14.10
2023-02-18T22:44:16.645Z,14.00
2023-02-18T22:46:45.396Z,14.10
2023-02-18T22:49:13.424Z,14.10
2023-02-18T22:51:42.693Z,14.30
2023-02-18T22:54:13.204Z,14.10
2023-02-18T22:56:44.549Z,14.20
2023-02-18T22:59:12.827Z,14.30
2023-02-18T23:01:42.261Z,14.40
2023-02-18T23:04:12.135Z,14.50
2023-02-18T23:06:42.478Z,14.30
2023-02-18T23:09:14.216Z,14.40
2023-02-18T23:11:43.631Z,14.50
2023-02-18T23:14:21.382Z,14.50
2023-02-18T23:17:13.611Z,14.50
2023-02-18T23:19:42.502Z,14.50
2023-02-18T23:22:11.798Z,14.70
2023-02-18T23:24:41.689Z,14.70
2023-02-18T23:27:13.323Z,14.70
2023-02-18T23:29:41.450Z,14.70
2023-02-18T23:32:09.888Z,14.80
2023-02-18T23:34:39.071Z,14.80
2023-02-18T23:37:07.156Z,14.70
2023-02-18T23:39:35.237Z,14.50
2023-02-18T23:42:02.925Z,14.60
2023-02-18T23:44:32.024Z,14.50
2023-02-18T23:47:00.246Z,14.50
2023-02-18T23:49:28.669Z,14.60
2023-02-18T23:51:57.997Z,14.50
2023-02-18T23:54:25.986Z,14.30
2023-02-18T23:56:54.168Z,14.40
2023-02-18T23:59:21.958Z,14.40
